RYR42 DAAG-EDDM
Flight info
| Callsign | RYR42 |
|---|---|
| Flight time | 2h 6m |
| Altitude | 34000 |
| Route | BOURI1C BOURI UM986 REQIN DCT BUKID DCT NEGAT DCT OMEDA/N0462F360 DCT RAPUR DCT TORTU DCT OLETI DCT UNITA DCT OTMUV DCT KOXUD DCT NESTI DCT TAGIP DCT GUNGO DCT TISAX/N0392F180 T102 NINUR T101 BETOS BETOS1A |
| Aircraft | B738/M-VGDW/C |
Departure
| Time | 2026-04-30 20:42 |
|---|---|
| Airport | Houari Boumediene Airport (DAAG) |
Arrival
| Time | 2026-04-30 22:48 |
|---|---|
| Airport | Munich Airport (EDDM) |
| Time | Latitude | Longitude | Altitude | Speed | Heading |
|---|---|---|---|---|---|
| 2026-04-30 20:20 | 36.69637 | 3.20283 | 69 ft | 0 kts | 271° |
| 2026-04-30 20:30 | 36.69657 | 3.20369 | 63 ft | 4 kts | 197° |
| 2026-04-30 20:30 | 36.69665 | 3.20372 | 66 ft | 1 kts | 181° |
| 2026-04-30 20:34 | 36.69658 | 3.20371 | 64 ft | 1 kts | 181° |
| 2026-04-30 20:35 | 36.69653 | 3.20371 | 62 ft | 1 kts | 182° |
| 2026-04-30 20:35 | 36.69647 | 3.20371 | 61 ft | 1 kts | 182° |
| 2026-04-30 20:35 | 36.69620 | 3.20370 | 66 ft | 5 kts | 182° |
| 2026-04-30 20:36 | 36.69566 | 3.20367 | 69 ft | 10 kts | 182° |
| 2026-04-30 20:36 | 36.69490 | 3.20364 | 69 ft | 11 kts | 180° |
| 2026-04-30 20:36 | 36.69443 | 3.20519 | 69 ft | 10 kts | 92° |
| 2026-04-30 20:37 | 36.69440 | 3.20607 | 69 ft | 10 kts | 92° |
| 2026-04-30 20:37 | 36.69438 | 3.20693 | 62 ft | 10 kts | 91° |
| 2026-04-30 20:37 | 36.69436 | 3.20777 | 66 ft | 10 kts | 92° |
| 2026-04-30 20:37 | 36.69422 | 3.20854 | 67 ft | 9 kts | 135° |
| 2026-04-30 20:38 | 36.69385 | 3.20916 | 67 ft | 9 kts | 97° |
| 2026-04-30 20:38 | 36.69385 | 3.21005 | 69 ft | 11 kts | 90° |
| 2026-04-30 20:38 | 36.69385 | 3.21098 | 65 ft | 11 kts | 90° |
| 2026-04-30 20:39 | 36.69384 | 3.21296 | 69 ft | 12 kts | 90° |
| 2026-04-30 20:39 | 36.69383 | 3.21405 | 69 ft | 14 kts | 91° |
| 2026-04-30 20:39 | 36.69382 | 3.21550 | 69 ft | 19 kts | 90° |
| 2026-04-30 20:40 | 36.69380 | 3.21910 | 72 ft | 19 kts | 90° |
| 2026-04-30 20:40 | 36.69390 | 3.22031 | 76 ft | 12 kts | 56° |
| 2026-04-30 20:40 | 36.69427 | 3.22087 | 72 ft | 0 kts | 53° |
| 2026-04-30 20:41 | 36.69436 | 3.22101 | 73 ft | 12 kts | 53° |
| 2026-04-30 20:41 | 36.69592 | 3.22358 | 75 ft | 74 kts | 52° |
| 2026-04-30 20:41 | 36.70069 | 3.23138 | 81 ft | 149 kts | 53° |
| 2026-04-30 20:41 | 36.70827 | 3.24364 | 275 ft | 198 kts | 53° |
| 2026-04-30 20:42 | 36.71709 | 3.25788 | 888 ft | 219 kts | 49° |
| 2026-04-30 20:42 | 36.73005 | 3.26925 | 1515 ft | 239 kts | 18° |
| 2026-04-30 20:42 | 36.76413 | 3.26433 | 2846 ft | 260 kts | 348° |
| 2026-04-30 20:43 | 36.78206 | 3.25975 | 3524 ft | 265 kts | 350° |
| 2026-04-30 20:43 | 36.80006 | 3.25858 | 4253 ft | 258 kts | 14° |
| 2026-04-30 20:43 | 36.81709 | 3.26523 | 5087 ft | 256 kts | 19° |
| 2026-04-30 20:44 | 36.85053 | 3.27942 | 6659 ft | 250 kts | 19° |
| 2026-04-30 20:44 | 36.86709 | 3.28640 | 7208 ft | 259 kts | 18° |
| 2026-04-30 20:44 | 36.90291 | 3.30131 | 8149 ft | 279 kts | 18° |
| 2026-04-30 20:45 | 36.93990 | 3.31654 | 9592 ft | 281 kts | 17° |
| 2026-04-30 20:45 | 36.95855 | 3.32419 | 10262 ft | 284 kts | 17° |
| 2026-04-30 20:45 | 36.97780 | 3.33206 | 10551 ft | 302 kts | 17° |
| 2026-04-30 20:46 | 37.04380 | 3.35907 | 11013 ft | 362 kts | 17° |
| 2026-04-30 20:46 | 37.06829 | 3.36912 | 11129 ft | 379 kts | 17° |
| 2026-04-30 20:47 | 37.11994 | 3.39033 | 11795 ft | 397 kts | 17° |
| 2026-04-30 20:47 | 37.14612 | 3.40142 | 12339 ft | 399 kts | 21° |
| 2026-04-30 20:48 | 37.18752 | 3.44724 | 13390 ft | 407 kts | 56° |
| 2026-04-30 20:48 | 37.20296 | 3.47722 | 13847 ft | 412 kts | 57° |
| 2026-04-30 20:48 | 37.21842 | 3.50764 | 14266 ft | 415 kts | 57° |
| 2026-04-30 20:48 | 37.23399 | 3.53830 | 14702 ft | 418 kts | 57° |
| 2026-04-30 20:49 | 37.24974 | 3.56919 | 15139 ft | 421 kts | 57° |
| 2026-04-30 20:49 | 37.26565 | 3.60023 | 15570 ft | 424 kts | 57° |
| 2026-04-30 20:49 | 37.28173 | 3.63147 | 15976 ft | 428 kts | 57° |
| 2026-04-30 20:50 | 37.31413 | 3.69425 | 16773 ft | 435 kts | 57° |
| 2026-04-30 20:50 | 37.33068 | 3.72631 | 17165 ft | 438 kts | 57° |
| 2026-04-30 20:50 | 37.34729 | 3.75852 | 17541 ft | 442 kts | 57° |
| 2026-04-30 20:50 | 37.36408 | 3.79108 | 17912 ft | 445 kts | 57° |
| 2026-04-30 20:51 | 37.38092 | 3.82380 | 18262 ft | 448 kts | 57° |
| 2026-04-30 20:51 | 37.41506 | 3.89022 | 18882 ft | 454 kts | 57° |
| 2026-04-30 20:51 | 37.43216 | 3.92354 | 19367 ft | 452 kts | 57° |
| 2026-04-30 20:52 | 37.44923 | 3.95684 | 19708 ft | 455 kts | 57° |
| 2026-04-30 20:52 | 37.46642 | 3.99040 | 19991 ft | 458 kts | 57° |
| 2026-04-30 20:52 | 37.50118 | 4.05837 | 20607 ft | 464 kts | 57° |
| 2026-04-30 20:53 | 37.51863 | 4.09256 | 20926 ft | 466 kts | 57° |
| 2026-04-30 20:53 | 37.53622 | 4.12704 | 21225 ft | 468 kts | 57° |
| 2026-04-30 20:53 | 37.55388 | 4.16170 | 21509 ft | 471 kts | 57° |
| 2026-04-30 20:54 | 37.58937 | 4.23147 | 22070 ft | 476 kts | 57° |
| 2026-04-30 20:54 | 37.60726 | 4.26670 | 22348 ft | 478 kts | 57° |
| 2026-04-30 20:54 | 37.62520 | 4.30205 | 22611 ft | 480 kts | 57° |
| 2026-04-30 20:55 | 37.66128 | 4.37329 | 23177 ft | 483 kts | 56° |
| 2026-04-30 20:55 | 37.67937 | 4.40907 | 23432 ft | 485 kts | 56° |
| 2026-04-30 20:55 | 37.69756 | 4.44508 | 23657 ft | 487 kts | 56° |
| 2026-04-30 20:56 | 37.73410 | 4.51752 | 24068 ft | 491 kts | 56° |
| 2026-04-30 20:56 | 37.75245 | 4.55397 | 24287 ft | 492 kts | 56° |
| 2026-04-30 20:56 | 37.78900 | 4.62668 | 24721 ft | 494 kts | 56° |
| 2026-04-30 20:57 | 37.80743 | 4.66342 | 24920 ft | 496 kts | 56° |
| 2026-04-30 20:57 | 37.82595 | 4.70036 | 25114 ft | 498 kts | 56° |
| 2026-04-30 20:57 | 37.84451 | 4.73744 | 25311 ft | 499 kts | 56° |
| 2026-04-30 20:58 | 37.88176 | 4.81198 | 25684 ft | 503 kts | 56° |
| 2026-04-30 20:58 | 37.90045 | 4.84943 | 25863 ft | 504 kts | 56° |
| 2026-04-30 20:58 | 37.91919 | 4.88704 | 26048 ft | 505 kts | 56° |
| 2026-04-30 20:58 | 37.93801 | 4.92483 | 26232 ft | 507 kts | 56° |
| 2026-04-30 20:59 | 37.98207 | 4.99424 | 26547 ft | 506 kts | 43° |
| 2026-04-30 20:59 | 38.00710 | 5.02561 | 26765 ft | 505 kts | 41° |
| 2026-04-30 21:00 | 38.05844 | 5.08609 | 27295 ft | 503 kts | 40° |
| 2026-04-30 21:00 | 38.10964 | 5.14657 | 27776 ft | 503 kts | 40° |
| 2026-04-30 21:01 | 38.15996 | 5.20734 | 28297 ft | 502 kts | 41° |
| 2026-04-30 21:01 | 38.18510 | 5.23802 | 28574 ft | 501 kts | 41° |
| 2026-04-30 21:01 | 38.23535 | 5.29956 | 29080 ft | 501 kts | 41° |
| 2026-04-30 21:02 | 38.26047 | 5.33036 | 29350 ft | 501 kts | 40° |
| 2026-04-30 21:02 | 38.28555 | 5.36111 | 29620 ft | 501 kts | 40° |
| 2026-04-30 21:02 | 38.31060 | 5.39186 | 29868 ft | 501 kts | 40° |
| 2026-04-30 21:02 | 38.33568 | 5.42265 | 30133 ft | 500 kts | 40° |
| 2026-04-30 21:03 | 38.36068 | 5.45338 | 30365 ft | 500 kts | 40° |
| 2026-04-30 21:03 | 38.38573 | 5.48420 | 30568 ft | 500 kts | 40° |
| 2026-04-30 21:03 | 38.41076 | 5.51501 | 30760 ft | 500 kts | 40° |
| 2026-04-30 21:03 | 38.43582 | 5.54591 | 30970 ft | 500 kts | 40° |
| 2026-04-30 21:04 | 38.46087 | 5.57683 | 31191 ft | 500 kts | 40° |
| 2026-04-30 21:04 | 38.48589 | 5.60774 | 31394 ft | 500 kts | 40° |
| 2026-04-30 21:04 | 38.53591 | 5.66961 | 31848 ft | 500 kts | 40° |
| 2026-04-30 21:05 | 38.56047 | 5.70006 | 32117 ft | 498 kts | 40° |
| 2026-04-30 21:05 | 38.58530 | 5.73087 | 32344 ft | 498 kts | 40° |
| 2026-04-30 21:05 | 38.61012 | 5.76169 | 32557 ft | 498 kts | 40° |
| 2026-04-30 21:05 | 38.63496 | 5.79255 | 32757 ft | 498 kts | 40° |
| 2026-04-30 21:06 | 38.65975 | 5.82340 | 32987 ft | 497 kts | 40° |
| 2026-04-30 21:06 | 38.68455 | 5.85428 | 33206 ft | 497 kts | 40° |
| 2026-04-30 21:06 | 38.70928 | 5.88512 | 33457 ft | 496 kts | 40° |
| 2026-04-30 21:06 | 38.73395 | 5.91592 | 33696 ft | 495 kts | 40° |
| 2026-04-30 21:07 | 38.75862 | 5.94673 | 33942 ft | 495 kts | 41° |
| 2026-04-30 21:07 | 38.78320 | 5.97747 | 34120 ft | 495 kts | 41° |
| 2026-04-30 21:07 | 38.83260 | 6.03934 | 34112 ft | 496 kts | 41° |
| 2026-04-30 21:08 | 38.88174 | 6.10103 | 34110 ft | 493 kts | 41° |
| 2026-04-30 21:08 | 38.93024 | 6.16203 | 34109 ft | 490 kts | 41° |
| 2026-04-30 21:09 | 38.97910 | 6.22281 | 34116 ft | 486 kts | 36° |
| 2026-04-30 21:09 | 39.03528 | 6.26869 | 34107 ft | 474 kts | 18° |
| 2026-04-30 21:10 | 39.09665 | 6.29849 | 34116 ft | 471 kts | 15° |
| 2026-04-30 21:10 | 39.15832 | 6.32756 | 34122 ft | 473 kts | 15° |
| 2026-04-30 21:11 | 39.22004 | 6.35723 | 34127 ft | 475 kts | 16° |
| 2026-04-30 21:11 | 39.28207 | 6.38751 | 34121 ft | 477 kts | 16° |
| 2026-04-30 21:12 | 39.34421 | 6.41801 | 34118 ft | 479 kts | 16° |
| 2026-04-30 21:12 | 39.40650 | 6.44865 | 34130 ft | 480 kts | 16° |
| 2026-04-30 21:13 | 39.46891 | 6.47939 | 34128 ft | 480 kts | 16° |
| 2026-04-30 21:13 | 39.53124 | 6.51013 | 34115 ft | 479 kts | 16° |
| 2026-04-30 21:14 | 39.59347 | 6.54089 | 34118 ft | 478 kts | 16° |
| 2026-04-30 21:14 | 39.65509 | 6.57140 | 34127 ft | 477 kts | 16° |
| 2026-04-30 21:15 | 39.71704 | 6.60212 | 34121 ft | 476 kts | 16° |
| 2026-04-30 21:15 | 39.77882 | 6.63283 | 34123 ft | 475 kts | 16° |
| 2026-04-30 21:16 | 39.84047 | 6.66353 | 34129 ft | 474 kts | 16° |
| 2026-04-30 21:16 | 39.90201 | 6.69422 | 34117 ft | 473 kts | 16° |
| 2026-04-30 21:17 | 39.96351 | 6.72496 | 34119 ft | 473 kts | 16° |
| 2026-04-30 21:17 | 40.02493 | 6.75572 | 34117 ft | 472 kts | 16° |
| 2026-04-30 21:18 | 40.08628 | 6.78651 | 34129 ft | 472 kts | 15° |
| 2026-04-30 21:18 | 40.14763 | 6.81735 | 34115 ft | 472 kts | 16° |
| 2026-04-30 21:19 | 40.20856 | 6.84804 | 34125 ft | 472 kts | 15° |
| 2026-04-30 21:19 | 40.26984 | 6.87897 | 34116 ft | 472 kts | 15° |
| 2026-04-30 21:20 | 40.33112 | 6.90996 | 34114 ft | 472 kts | 15° |
| 2026-04-30 21:20 | 40.39233 | 6.94098 | 34113 ft | 471 kts | 15° |
| 2026-04-30 21:21 | 40.45343 | 6.97201 | 34116 ft | 470 kts | 15° |
| 2026-04-30 21:22 | 40.54482 | 7.01852 | 34115 ft | 469 kts | 15° |
| 2026-04-30 21:23 | 40.66616 | 7.08048 | 34118 ft | 469 kts | 15° |
| 2026-04-30 21:23 | 40.75732 | 7.12719 | 34125 ft | 469 kts | 15° |
| 2026-04-30 21:24 | 40.81812 | 7.15843 | 34125 ft | 469 kts | 15° |
| 2026-04-30 21:24 | 40.87861 | 7.19087 | 34122 ft | 473 kts | 21° |
| 2026-04-30 21:25 | 40.93280 | 7.24198 | 34134 ft | 487 kts | 38° |
| 2026-04-30 21:25 | 40.95719 | 7.27326 | 34142 ft | 488 kts | 39° |
| 2026-04-30 21:26 | 41.02951 | 7.36826 | 34140 ft | 488 kts | 39° |
| 2026-04-30 21:27 | 41.10211 | 7.46198 | 34139 ft | 488 kts | 38° |
| 2026-04-30 21:27 | 41.15085 | 7.52464 | 34149 ft | 488 kts | 38° |
| 2026-04-30 21:28 | 41.21563 | 7.60821 | 34167 ft | 488 kts | 38° |
| 2026-04-30 21:29 | 41.28855 | 7.70262 | 34148 ft | 488 kts | 38° |
| 2026-04-30 21:30 | 41.41161 | 7.85666 | 34147 ft | 476 kts | 27° |
| 2026-04-30 21:31 | 41.49935 | 7.91125 | 34156 ft | 461 kts | 14° |
| 2026-04-30 21:31 | 41.55916 | 7.94244 | 34161 ft | 461 kts | 14° |
| 2026-04-30 21:32 | 41.64817 | 7.98996 | 34167 ft | 461 kts | 14° |
| 2026-04-30 21:32 | 41.70757 | 8.02208 | 34173 ft | 460 kts | 14° |
| 2026-04-30 21:33 | 41.79658 | 8.07036 | 34157 ft | 459 kts | 15° |
| 2026-04-30 21:34 | 41.85579 | 8.10254 | 34161 ft | 459 kts | 15° |
| 2026-04-30 21:34 | 41.94450 | 8.15085 | 34170 ft | 459 kts | 15° |
| 2026-04-30 21:35 | 42.00366 | 8.18315 | 34160 ft | 459 kts | 15° |
| 2026-04-30 21:35 | 42.06280 | 8.21551 | 34155 ft | 459 kts | 15° |
| 2026-04-30 21:36 | 42.12190 | 8.24791 | 34176 ft | 458 kts | 16° |
| 2026-04-30 21:37 | 42.21063 | 8.29669 | 34479 ft | 458 kts | 16° |
| 2026-04-30 21:37 | 42.24007 | 8.31292 | 34753 ft | 456 kts | 16° |
| 2026-04-30 21:37 | 42.26934 | 8.32907 | 35011 ft | 454 kts | 16° |
| 2026-04-30 21:37 | 42.29854 | 8.34518 | 35246 ft | 453 kts | 15° |
| 2026-04-30 21:38 | 42.32767 | 8.36126 | 35481 ft | 451 kts | 16° |
| 2026-04-30 21:38 | 42.35670 | 8.37731 | 35699 ft | 450 kts | 16° |
| 2026-04-30 21:38 | 42.38574 | 8.39337 | 35866 ft | 450 kts | 16° |
| 2026-04-30 21:38 | 42.41432 | 8.40920 | 36021 ft | 451 kts | 16° |
| 2026-04-30 21:39 | 42.44339 | 8.42531 | 36190 ft | 451 kts | 16° |
| 2026-04-30 21:39 | 42.47236 | 8.44139 | 36376 ft | 450 kts | 16° |
| 2026-04-30 21:39 | 42.50129 | 8.45747 | 36569 ft | 449 kts | 16° |
| 2026-04-30 21:39 | 42.53029 | 8.47360 | 36722 ft | 449 kts | 16° |
| 2026-04-30 21:40 | 42.55916 | 8.48967 | 36890 ft | 449 kts | 16° |
| 2026-04-30 21:40 | 42.58807 | 8.50578 | 36960 ft | 450 kts | 16° |
| 2026-04-30 21:40 | 42.64613 | 8.53818 | 36967 ft | 450 kts | 16° |
| 2026-04-30 21:41 | 42.70389 | 8.57051 | 36991 ft | 448 kts | 17° |
| 2026-04-30 21:41 | 42.76140 | 8.60275 | 36979 ft | 446 kts | 17° |
| 2026-04-30 21:42 | 42.81859 | 8.63487 | 36991 ft | 444 kts | 17° |
| 2026-04-30 21:42 | 42.87565 | 8.66696 | 37010 ft | 443 kts | 17° |
| 2026-04-30 21:43 | 42.93217 | 8.69882 | 37019 ft | 443 kts | 17° |
| 2026-04-30 21:43 | 42.98917 | 8.73100 | 37025 ft | 443 kts | 17° |
| 2026-04-30 21:44 | 43.04625 | 8.76330 | 37029 ft | 445 kts | 17° |
| 2026-04-30 21:44 | 43.10349 | 8.79576 | 37041 ft | 446 kts | 18° |
| 2026-04-30 21:45 | 43.16089 | 8.82838 | 37035 ft | 447 kts | 18° |
| 2026-04-30 21:45 | 43.21846 | 8.86117 | 37037 ft | 448 kts | 18° |
| 2026-04-30 21:46 | 43.27616 | 8.89410 | 37040 ft | 449 kts | 18° |
| 2026-04-30 21:46 | 43.33393 | 8.92714 | 37047 ft | 449 kts | 18° |
| 2026-04-30 21:47 | 43.39221 | 8.95706 | 37032 ft | 443 kts | 9° |
| 2026-04-30 21:47 | 43.45263 | 8.96730 | 37046 ft | 436 kts | 0° |
| 2026-04-30 21:48 | 43.51302 | 8.97355 | 37051 ft | 435 kts | 1° |
| 2026-04-30 21:48 | 43.57335 | 8.98032 | 37044 ft | 434 kts | 1° |
| 2026-04-30 21:49 | 43.63310 | 8.98740 | 37049 ft | 433 kts | 1° |
| 2026-04-30 21:49 | 43.69312 | 8.99459 | 37061 ft | 432 kts | 1° |
| 2026-04-30 21:50 | 43.75300 | 9.00177 | 37054 ft | 432 kts | 1° |
| 2026-04-30 21:50 | 43.81287 | 9.00895 | 37055 ft | 431 kts | 1° |
| 2026-04-30 21:51 | 43.87259 | 9.01622 | 37064 ft | 431 kts | 2° |
| 2026-04-30 21:51 | 43.93247 | 9.02353 | 37056 ft | 431 kts | 2° |
| 2026-04-30 21:52 | 43.99230 | 9.03071 | 37062 ft | 431 kts | 2° |
| 2026-04-30 21:52 | 44.05205 | 9.03776 | 37058 ft | 431 kts | 2° |
| 2026-04-30 21:53 | 44.11194 | 9.04485 | 37060 ft | 432 kts | 2° |
| 2026-04-30 21:53 | 44.17141 | 9.05200 | 37062 ft | 433 kts | 3° |
| 2026-04-30 21:54 | 44.22999 | 9.07288 | 37070 ft | 439 kts | 18° |
| 2026-04-30 21:54 | 44.28667 | 9.10534 | 37083 ft | 440 kts | 19° |
| 2026-04-30 21:55 | 44.34334 | 9.13796 | 37066 ft | 440 kts | 19° |
| 2026-04-30 21:55 | 44.40003 | 9.17021 | 37061 ft | 439 kts | 19° |
| 2026-04-30 21:56 | 44.45667 | 9.20227 | 37073 ft | 439 kts | 19° |
| 2026-04-30 21:56 | 44.51323 | 9.23430 | 37091 ft | 438 kts | 19° |
| 2026-04-30 21:57 | 44.56963 | 9.26631 | 37096 ft | 437 kts | 19° |
| 2026-04-30 21:57 | 44.62586 | 9.29830 | 37129 ft | 435 kts | 20° |
| 2026-04-30 21:58 | 44.68148 | 9.33001 | 37122 ft | 433 kts | 19° |
| 2026-04-30 21:58 | 44.73721 | 9.36186 | 37126 ft | 431 kts | 19° |
| 2026-04-30 21:59 | 44.79262 | 9.39358 | 37134 ft | 429 kts | 19° |
| 2026-04-30 22:00 | 44.87512 | 9.44094 | 37135 ft | 425 kts | 19° |
| 2026-04-30 22:00 | 44.95707 | 9.48813 | 37129 ft | 423 kts | 19° |
| 2026-04-30 22:01 | 45.01158 | 9.51960 | 37125 ft | 423 kts | 20° |
| 2026-04-30 22:01 | 45.06600 | 9.55108 | 37122 ft | 423 kts | 20° |
| 2026-04-30 22:02 | 45.12017 | 9.58249 | 37123 ft | 423 kts | 20° |
| 2026-04-30 22:02 | 45.17403 | 9.61650 | 37117 ft | 427 kts | 28° |
| 2026-04-30 22:03 | 45.22116 | 9.66838 | 37135 ft | 431 kts | 39° |
| 2026-04-30 22:03 | 45.26552 | 9.72615 | 37116 ft | 433 kts | 39° |
| 2026-04-30 22:04 | 45.31005 | 9.78403 | 37096 ft | 434 kts | 39° |
| 2026-04-30 22:05 | 45.37719 | 9.87069 | 37120 ft | 435 kts | 39° |
| 2026-04-30 22:05 | 45.42195 | 9.92847 | 37116 ft | 434 kts | 39° |
| 2026-04-30 22:06 | 45.46668 | 9.98633 | 37119 ft | 434 kts | 39° |
| 2026-04-30 22:06 | 45.53330 | 10.07277 | 37125 ft | 433 kts | 40° |
| 2026-04-30 22:07 | 45.57783 | 10.13071 | 37122 ft | 432 kts | 40° |
| 2026-04-30 22:07 | 45.62215 | 10.18852 | 37127 ft | 430 kts | 40° |
| 2026-04-30 22:08 | 45.66633 | 10.24628 | 37107 ft | 430 kts | 39° |
| 2026-04-30 22:08 | 45.71035 | 10.30394 | 37142 ft | 429 kts | 40° |
| 2026-04-30 22:09 | 45.75436 | 10.36172 | 37126 ft | 428 kts | 40° |
| 2026-04-30 22:09 | 45.79807 | 10.41965 | 37119 ft | 428 kts | 43° |
| 2026-04-30 22:10 | 45.83449 | 10.48716 | 37125 ft | 429 kts | 52° |
| 2026-04-30 22:10 | 45.86843 | 10.55741 | 37128 ft | 428 kts | 52° |
| 2026-04-30 22:11 | 45.92073 | 10.66084 | 37108 ft | 424 kts | 45° |
| 2026-04-30 22:12 | 45.96546 | 10.71515 | 37109 ft | 420 kts | 30° |
| 2026-04-30 22:12 | 46.01671 | 10.75495 | 37147 ft | 419 kts | 26° |
| 2026-04-30 22:13 | 46.06817 | 10.79369 | 37132 ft | 420 kts | 27° |
| 2026-04-30 22:13 | 46.11975 | 10.83312 | 37123 ft | 419 kts | 27° |
| 2026-04-30 22:14 | 46.17094 | 10.87286 | 37133 ft | 418 kts | 28° |
| 2026-04-30 22:14 | 46.22210 | 10.91232 | 37142 ft | 417 kts | 27° |
| 2026-04-30 22:15 | 46.27319 | 10.95185 | 37145 ft | 417 kts | 28° |
| 2026-04-30 22:15 | 46.32429 | 10.99159 | 37130 ft | 417 kts | 28° |
| 2026-04-30 22:16 | 46.37529 | 11.03130 | 37146 ft | 416 kts | 27° |
| 2026-04-30 22:17 | 46.48740 | 11.06593 | 37112 ft | 418 kts | 2° |
| 2026-04-30 22:17 | 46.57476 | 11.06492 | 37092 ft | 419 kts | 2° |
| 2026-04-30 22:18 | 46.66186 | 11.06324 | 37068 ft | 421 kts | 357° |
| 2026-04-30 22:19 | 46.74878 | 11.04591 | 37075 ft | 420 kts | 356° |
| 2026-04-30 22:20 | 46.82619 | 11.03132 | 37070 ft | 419 kts | 356° |
| 2026-04-30 22:20 | 46.91243 | 11.01492 | 37077 ft | 418 kts | 356° |
| 2026-04-30 22:21 | 46.97010 | 11.01127 | 37057 ft | 412 kts | 8° |
| 2026-04-30 22:21 | 47.02706 | 11.02052 | 36804 ft | 415 kts | 9° |
| 2026-04-30 22:22 | 47.05574 | 11.02514 | 36346 ft | 412 kts | 9° |
| 2026-04-30 22:22 | 47.08422 | 11.02962 | 35748 ft | 411 kts | 9° |
| 2026-04-30 22:22 | 47.11257 | 11.03400 | 35158 ft | 409 kts | 10° |
| 2026-04-30 22:22 | 47.14085 | 11.03833 | 34529 ft | 409 kts | 10° |
| 2026-04-30 22:23 | 47.16907 | 11.04262 | 33850 ft | 405 kts | 10° |
| 2026-04-30 22:23 | 47.19700 | 11.04686 | 33137 ft | 403 kts | 11° |
| 2026-04-30 22:23 | 47.22499 | 11.05103 | 32487 ft | 403 kts | 10° |
| 2026-04-30 22:23 | 47.25293 | 11.05512 | 31726 ft | 404 kts | 11° |
| 2026-04-30 22:24 | 47.28086 | 11.05953 | 31050 ft | 405 kts | 11° |
| 2026-04-30 22:24 | 47.30894 | 11.06397 | 30305 ft | 407 kts | 11° |
| 2026-04-30 22:24 | 47.33710 | 11.06832 | 29442 ft | 408 kts | 11° |
| 2026-04-30 22:24 | 47.36535 | 11.07263 | 28681 ft | 406 kts | 10° |
| 2026-04-30 22:25 | 47.39336 | 11.07692 | 27842 ft | 406 kts | 10° |
| 2026-04-30 22:25 | 47.42154 | 11.08125 | 26976 ft | 408 kts | 10° |
| 2026-04-30 22:25 | 47.44938 | 11.08554 | 26137 ft | 409 kts | 9° |
| 2026-04-30 22:25 | 47.47794 | 11.08996 | 25506 ft | 415 kts | 9° |
| 2026-04-30 22:26 | 47.53642 | 11.09949 | 24171 ft | 422 kts | 12° |
| 2026-04-30 22:26 | 47.56478 | 11.10993 | 23449 ft | 416 kts | 20° |
| 2026-04-30 22:26 | 47.59158 | 11.12534 | 22721 ft | 411 kts | 26° |
| 2026-04-30 22:27 | 47.61638 | 11.14576 | 22041 ft | 406 kts | 31° |
| 2026-04-30 22:27 | 47.64049 | 11.16718 | 21410 ft | 402 kts | 32° |
| 2026-04-30 22:27 | 47.68814 | 11.20906 | 20164 ft | 394 kts | 31° |
| 2026-04-30 22:28 | 47.73486 | 11.24924 | 18975 ft | 388 kts | 29° |
| 2026-04-30 22:28 | 47.75925 | 11.26502 | 18359 ft | 387 kts | 21° |
| 2026-04-30 22:29 | 47.83485 | 11.30550 | 16462 ft | 379 kts | 22° |
| 2026-04-30 22:29 | 47.85949 | 11.31919 | 15873 ft | 376 kts | 22° |
| 2026-04-30 22:30 | 47.96192 | 11.34101 | 13964 ft | 362 kts | 6° |
| 2026-04-30 22:31 | 48.03009 | 11.34652 | 14407 ft | 281 kts | 7° |
| 2026-04-30 22:32 | 48.07430 | 11.38132 | 14023 ft | 224 kts | 57° |
| 2026-04-30 22:32 | 48.08610 | 11.42250 | 13554 ft | 213 kts | 69° |
| 2026-04-30 22:33 | 48.10104 | 11.48515 | 12534 ft | 212 kts | 69° |
| 2026-04-30 22:33 | 48.11093 | 11.52646 | 11972 ft | 209 kts | 69° |
| 2026-04-30 22:34 | 48.12542 | 11.58682 | 11472 ft | 207 kts | 69° |
| 2026-04-30 22:35 | 48.13530 | 11.62796 | 11140 ft | 211 kts | 70° |
| 2026-04-30 22:36 | 48.15497 | 11.71003 | 10482 ft | 208 kts | 70° |
| 2026-04-30 22:36 | 48.15986 | 11.73042 | 10317 ft | 207 kts | 70° |
| 2026-04-30 22:37 | 48.17434 | 11.79106 | 9784 ft | 205 kts | 70° |
| 2026-04-30 22:37 | 48.17912 | 11.81112 | 9604 ft | 204 kts | 70° |
| 2026-04-30 22:37 | 48.19228 | 11.84814 | 9300 ft | 202 kts | 60° |
| 2026-04-30 22:38 | 48.20674 | 11.88405 | 8987 ft | 201 kts | 60° |
| 2026-04-30 22:38 | 48.22106 | 11.91994 | 8676 ft | 201 kts | 60° |
| 2026-04-30 22:39 | 48.22823 | 11.93800 | 8522 ft | 201 kts | 60° |
| 2026-04-30 22:39 | 48.24978 | 11.99258 | 8049 ft | 204 kts | 60° |
| 2026-04-30 22:40 | 48.27162 | 12.04816 | 7551 ft | 208 kts | 60° |
| 2026-04-30 22:41 | 48.29351 | 12.10399 | 7055 ft | 203 kts | 60° |
| 2026-04-30 22:41 | 48.30763 | 12.14011 | 6741 ft | 201 kts | 60° |
| 2026-04-30 22:42 | 48.35536 | 12.16189 | 6067 ft | 217 kts | 326° |
| 2026-04-30 22:43 | 48.36801 | 12.12176 | 5722 ft | 224 kts | 268° |
| 2026-04-30 22:43 | 48.36592 | 12.07365 | 4996 ft | 230 kts | 261° |
| 2026-04-30 22:44 | 48.36212 | 12.02722 | 4388 ft | 216 kts | 261° |
| 2026-04-30 22:45 | 48.35590 | 11.94778 | 3370 ft | 178 kts | 260° |
| 2026-04-30 22:45 | 48.35308 | 11.91148 | 2909 ft | 173 kts | 260° |
| 2026-04-30 22:46 | 48.35032 | 11.87594 | 2446 ft | 166 kts | 262° |
| 2026-04-30 22:47 | 48.34538 | 11.81297 | 1681 ft | 150 kts | 265° |
| 2026-04-30 22:47 | 48.34307 | 11.78234 | 1482 ft | 136 kts | 265° |
| 2026-04-30 22:48 | 48.34189 | 11.76630 | 1484 ft | 16 kts | 267° |
| 2026-04-30 22:49 | 48.34228 | 11.76314 | 1479 ft | 19 kts | 291° |
| 2026-04-30 22:49 | 48.34404 | 11.75945 | 1484 ft | 15 kts | 59° |
| 2026-04-30 22:50 | 48.34446 | 11.76492 | 1484 ft | 12 kts | 83° |
| 2026-04-30 22:51 | 48.34482 | 11.76698 | 1484 ft | 7 kts | 5° |
| 2026-04-30 22:51 | 48.34503 | 11.76695 | 1480 ft | 0 kts | 354° |
| 2026-04-30 22:52 | 48.34510 | 11.76694 | 1482 ft | 2 kts | 354° |
| 2026-04-30 22:52 | 48.34577 | 11.76774 | 1484 ft | 13 kts | 82° |
| 2026-04-30 22:53 | 48.34600 | 11.77078 | 1484 ft | 14 kts | 83° |
| 2026-04-30 22:53 | 48.34623 | 11.77363 | 1474 ft | 13 kts | 83° |
| 2026-04-30 22:53 | 48.34633 | 11.77499 | 1484 ft | 13 kts | 83° |
| 2026-04-30 22:54 | 48.34653 | 11.77758 | 1484 ft | 12 kts | 83° |
| 2026-04-30 22:55 | 48.34680 | 11.78120 | 1484 ft | 12 kts | 85° |
| 2026-04-30 22:55 | 48.34707 | 11.78464 | 1484 ft | 17 kts | 84° |
| 2026-04-30 22:56 | 48.34733 | 11.78812 | 1484 ft | 16 kts | 84° |
| 2026-04-30 22:56 | 48.34770 | 11.79287 | 1480 ft | 15 kts | 84° |
| 2026-04-30 22:57 | 48.34835 | 11.79554 | 1484 ft | 6 kts | 1° |
| 2026-04-30 22:57 | 48.34843 | 11.79549 | 1474 ft | 0 kts | 329° |